createdAt,value
2018-01-27T00:00:59.374Z,102086.30
2018-01-27T00:03:27.066Z,102085.03
2018-01-27T00:05:54.706Z,102085.03
2018-01-27T00:08:22.261Z,102087.70
2018-01-27T00:10:49.892Z,102084.96
2018-01-27T00:13:17.536Z,102091.45
2018-01-27T00:15:45.210Z,102087.68
2018-01-27T00:18:12.810Z,102082.97
2018-01-27T00:20:40.380Z,102086.84
2018-01-27T00:23:07.921Z,102092.16
2018-01-27T00:25:35.525Z,102096.33
2018-01-27T00:28:03.097Z,102096.15
2018-01-27T00:30:30.650Z,102093.84
2018-01-27T00:32:58.244Z,102096.09
2018-01-27T00:35:25.816Z,102098.03
2018-01-27T00:37:53.739Z,102095.23
2018-01-27T00:40:21.331Z,102105.34
2018-01-27T00:42:48.976Z,102106.30
2018-01-27T00:45:16.544Z,102109.57
2018-01-27T00:47:44.157Z,102112.53
2018-01-27T00:50:11.705Z,102109.53
2018-01-27T00:52:39.312Z,102114.95
2018-01-27T00:55:06.967Z,102103.77
2018-01-27T00:57:34.828Z,102101.72
2018-01-27T01:00:02.513Z,102109.76
2018-01-27T01:02:30.159Z,102117.11
2018-01-27T01:04:57.732Z,102118.81
2018-01-27T01:07:25.286Z,102124.79
2018-01-27T01:09:52.884Z,102120.02
2018-01-27T01:12:20.462Z,102123.59
2018-01-27T01:14:48.037Z,102124.92
2018-01-27T01:17:15.929Z,102130.48
2018-01-27T01:19:43.491Z,102128.13
2018-01-27T01:22:11.043Z,102129.69
2018-01-27T01:24:38.918Z,102136.52
2018-01-27T01:27:06.483Z,102133.45
2018-01-27T01:29:34.347Z,102136.28
2018-01-27T01:32:02.541Z,102144.75
2018-01-27T01:34:30.109Z,102147.46
2018-01-27T01:36:57.948Z,102154.41
2018-01-27T01:39:25.591Z,102149.00
2018-01-27T01:41:53.157Z,102148.31
2018-01-27T01:44:26.377Z,102140.94
2018-01-27T01:46:53.958Z,102148.95
2018-01-27T01:49:24.239Z,102151.61
2018-01-27T01:51:51.883Z,102159.65
2018-01-27T01:54:19.438Z,102154.94
2018-01-27T01:56:46.999Z,102157.89
2018-01-27T01:59:14.911Z,102162.86
2018-01-27T02:01:42.513Z,102162.13
2018-01-27T02:04:10.094Z,102168.11
2018-01-27T02:06:37.750Z,102173.13
2018-01-27T02:09:05.317Z,102175.16
2018-01-27T02:11:32.866Z,102169.84
2018-01-27T02:14:00.781Z,102171.59
2018-01-27T02:16:28.419Z,102176.27
2018-01-27T02:18:56.308Z,102170.80
2018-01-27T02:21:23.927Z,102168.72
2018-01-27T02:23:51.485Z,102169.78
2018-01-27T02:26:19.097Z,102173.61
2018-01-27T02:28:46.684Z,102179.08
2018-01-27T02:31:14.237Z,102188.81
2018-01-27T02:33:41.827Z,102188.38
2018-01-27T02:36:09.411Z,102192.25
2018-01-27T02:38:36.949Z,102192.44
2018-01-27T02:41:04.871Z,102198.53
2018-01-27T02:43:32.465Z,102194.48
2018-01-27T02:46:00.029Z,102207.91
2018-01-27T02:48:27.596Z,102203.55
2018-01-27T02:50:55.174Z,102205.12
2018-01-27T02:53:22.751Z,102206.55
2018-01-27T02:55:50.333Z,102209.96
2018-01-27T02:58:17.930Z,102208.93
2018-01-27T03:00:45.742Z,102206.56
2018-01-27T03:03:13.304Z,102216.63
2018-01-27T03:05:40.957Z,102213.79
2018-01-27T03:08:08.517Z,102220.70
2018-01-27T03:10:36.096Z,102222.07
2018-01-27T03:13:03.692Z,102224.62
2018-01-27T03:15:31.260Z,102223.60
2018-01-27T03:17:59.106Z,102231.34
2018-01-27T03:20:26.716Z,102233.91
2018-01-27T03:22:54.526Z,102236.56
2018-01-27T03:25:22.129Z,102238.47
2018-01-27T03:27:49.724Z,102237.14
2018-01-27T03:30:17.327Z,102239.49
2018-01-27T03:32:45.188Z,102250.48
2018-01-27T03:35:13.066Z,102248.80
2018-01-27T03:37:40.615Z,102255.08
2018-01-27T03:40:08.198Z,102260.94
2018-01-27T03:42:35.834Z,102264.13
2018-01-27T03:45:03.400Z,102263.13
2018-01-27T03:47:30.951Z,102273.95
2018-01-27T03:49:58.544Z,102279.33
2018-01-27T03:52:26.383Z,102265.77
2018-01-27T03:54:53.963Z,102267.23
2018-01-27T03:57:21.566Z,102271.70
2018-01-27T03:59:49.151Z,102279.03
2018-01-27T04:02:16.703Z,102278.84
2018-01-27T04:04:44.607Z,102286.93
2018-01-27T04:07:12.399Z,102285.02
2018-01-27T04:09:39.992Z,102293.47
2018-01-27T04:12:07.575Z,102292.36
2018-01-27T04:14:35.455Z,102294.69
2018-01-27T04:17:03.074Z,102291.05
2018-01-27T04:19:30.669Z,102296.91
2018-01-27T04:21:58.242Z,102296.55
2018-01-27T04:24:25.786Z,102293.47
2018-01-27T04:26:53.781Z,102295.28
2018-01-27T04:29:21.409Z,102305.13
2018-01-27T04:31:48.975Z,102300.83
2018-01-27T04:34:16.548Z,102306.56
2018-01-27T04:36:44.111Z,102311.77
2018-01-27T04:39:11.671Z,102305.91
2018-01-27T04:41:39.276Z,102311.52
2018-01-27T04:44:06.869Z,102312.56
2018-01-27T04:46:34.420Z,102321.72
2018-01-27T04:49:02.334Z,102316.59
2018-01-27T04:51:29.916Z,102315.81
2018-01-27T04:53:57.500Z,102322.82
2018-01-27T04:56:25.425Z,102324.63
2018-01-27T04:58:53.294Z,102334.36
2018-01-27T05:01:20.850Z,102330.80
2018-01-27T05:03:48.467Z,102334.95
2018-01-27T05:06:16.024Z,102328.68
2018-01-27T05:08:43.843Z,102331.98
2018-01-27T05:11:11.705Z,102338.20
2018-01-27T05:13:39.285Z,102344.45
2018-01-27T05:16:06.874Z,102344.38
2018-01-27T05:18:34.461Z,102349.03
2018-01-27T05:21:02.038Z,102352.45
2018-01-27T05:23:29.920Z,102360.62
2018-01-27T05:25:57.789Z,102361.48
2018-01-27T05:28:25.413Z,102366.22
2018-01-27T05:30:52.988Z,102364.78
2018-01-27T05:33:20.662Z,102374.39
2018-01-27T05:35:48.242Z,102377.10
2018-01-27T05:38:15.803Z,102379.45
2018-01-27T05:40:43.674Z,102388.38
2018-01-27T05:43:11.264Z,102394.66
2018-01-27T05:45:39.100Z,102397.67
2018-01-27T05:48:06.712Z,102403.95
2018-01-27T05:50:34.270Z,102402.56
2018-01-27T05:53:01.846Z,102401.18
2018-01-27T05:55:29.477Z,102408.78
2018-01-27T05:57:57.071Z,102416.55
2018-01-27T06:00:24.614Z,102416.22
2018-01-27T06:02:52.197Z,102425.73
2018-01-27T06:05:20.190Z,102428.76
2018-01-27T06:07:47.776Z,102421.95
2018-01-27T06:10:15.630Z,102428.66
2018-01-27T06:12:43.490Z,102427.86
2018-01-27T06:15:11.065Z,102447.45
2018-01-27T06:17:38.646Z,102445.27
2018-01-27T06:20:06.216Z,102447.62
2018-01-27T06:22:33.821Z,102451.44
2018-01-27T06:25:01.715Z,102452.45
2018-01-27T06:27:29.292Z,102450.59
2018-01-27T06:29:57.240Z,102455.59
2018-01-27T06:32:24.817Z,102453.89
2018-01-27T06:34:52.666Z,102453.16
2018-01-27T06:37:20.835Z,102456.80
2018-01-27T06:39:48.426Z,102466.27
2018-01-27T06:42:16.364Z,102476.58
2018-01-27T06:44:43.924Z,102479.08
2018-01-27T06:47:12.156Z,102486.20
2018-01-27T06:49:39.739Z,102488.31
2018-01-27T06:52:07.325Z,102484.81
2018-01-27T06:54:34.921Z,102495.00
2018-01-27T06:57:02.502Z,102493.72
2018-01-27T06:59:30.431Z,102500.98
2018-01-27T07:01:58.011Z,102508.85
2018-01-27T07:04:25.851Z,102510.51
2018-01-27T07:06:53.418Z,102505.67
2018-01-27T07:09:21.335Z,102511.09
2018-01-27T07:11:48.952Z,102513.16
2018-01-27T07:14:16.515Z,102516.91
2018-01-27T07:16:44.112Z,102519.93
2018-01-27T07:19:11.669Z,102519.61
2018-01-27T07:21:39.610Z,102532.36
2018-01-27T07:24:07.197Z,102531.45
2018-01-27T07:26:34.781Z,102533.58
2018-01-27T07:29:02.339Z,102534.91
2018-01-27T07:31:29.968Z,102540.80
2018-01-27T07:33:57.541Z,102540.64
2018-01-27T07:36:25.099Z,102552.77
2018-01-27T07:38:52.700Z,102555.47
2018-01-27T07:41:20.498Z,102563.02
2018-01-27T07:43:48.111Z,102559.19
2018-01-27T07:46:15.693Z,102565.99
2018-01-27T07:48:43.258Z,102574.38
2018-01-27T07:51:10.802Z,102579.11
2018-01-27T07:53:38.500Z,102577.15
2018-01-27T07:56:06.156Z,102583.13
2018-01-27T07:58:33.801Z,102589.06
2018-01-27T08:01:01.397Z,102588.20
2018-01-27T08:03:28.987Z,102587.31
2018-01-27T08:05:56.606Z,102591.28
2018-01-27T08:08:24.228Z,102597.32
2018-01-27T08:10:52.036Z,102597.22
2018-01-27T08:13:19.681Z,102601.46
2018-01-27T08:15:47.674Z,102598.89
2018-01-27T08:18:15.272Z,102595.63
2018-01-27T08:20:43.212Z,102594.38
2018-01-27T08:23:10.804Z,102596.31
2018-01-27T08:25:38.448Z,102599.73
2018-01-27T08:28:06.027Z,102598.77
2018-01-27T08:30:33.625Z,102598.03
2018-01-27T08:33:01.252Z,102596.27
2018-01-27T08:35:29.008Z,102598.08
2018-01-27T08:37:56.621Z,102599.08
2018-01-27T08:40:24.179Z,102607.13
2018-01-27T08:42:51.786Z,102601.22
2018-01-27T08:45:19.450Z,102608.23
2018-01-27T08:47:47.016Z,102602.53
2018-01-27T08:50:14.664Z,102604.44
2018-01-27T08:52:42.275Z,102605.44
2018-01-27T08:55:09.857Z,102609.17
2018-01-27T08:57:37.745Z,102601.89
2018-01-27T09:00:05.366Z,102604.02
2018-01-27T09:02:32.990Z,102609.02
2018-01-27T09:05:00.766Z,102608.38
2018-01-27T09:07:28.376Z,102613.11
2018-01-27T09:09:56.274Z,102620.02
2018-01-27T09:12:23.875Z,102613.70
2018-01-27T09:14:51.491Z,102618.27
2018-01-27T09:17:19.357Z,102613.65
2018-01-27T09:19:46.911Z,102621.36
2018-01-27T09:22:14.508Z,102618.06
2018-01-27T09:24:42.138Z,102620.73
2018-01-27T09:27:09.684Z,102629.58
2018-01-27T09:29:37.457Z,102636.14
2018-01-27T09:32:05.333Z,102637.64
2018-01-27T09:34:33.203Z,102645.11
2018-01-27T09:37:00.829Z,102644.49
2018-01-27T09:39:28.405Z,102645.67
2018-01-27T09:41:56.024Z,102654.34
2018-01-27T09:44:23.629Z,102656.78
2018-01-27T09:46:51.205Z,102654.80
2018-01-27T09:49:18.781Z,102654.31
2018-01-27T09:51:46.460Z,102649.25
2018-01-27T09:54:14.032Z,102645.59
2018-01-27T09:56:41.953Z,102643.45
2018-01-27T09:59:09.585Z,102643.08
2018-01-27T10:01:37.151Z,102651.53
2018-01-27T10:04:05.010Z,102653.50
2018-01-27T10:06:32.672Z,102653.33
2018-01-27T10:09:00.264Z,102653.14
2018-01-27T10:11:27.821Z,102654.02
2018-01-27T10:13:55.429Z,102660.98
2018-01-27T10:16:23.191Z,102653.94
2018-01-27T10:18:50.750Z,102657.84
2018-01-27T10:21:18.398Z,102656.09
2018-01-27T10:23:45.972Z,102658.25
2018-01-27T10:26:13.555Z,102653.49
2018-01-27T10:28:41.164Z,102654.53
2018-01-27T10:31:08.778Z,102662.66
2018-01-27T10:33:36.348Z,102666.09
2018-01-27T10:36:04.025Z,102671.70
2018-01-27T10:38:31.609Z,102666.76
2018-01-27T10:40:59.233Z,102677.50
2018-01-27T10:43:26.858Z,102670.59
2018-01-27T10:45:54.435Z,102679.81
2018-01-27T10:48:22.026Z,102676.65
2018-01-27T10:50:49.659Z,102683.78
2018-01-27T10:53:17.314Z,102684.37
2018-01-27T10:55:44.876Z,102681.92
2018-01-27T10:58:12.540Z,102684.34
2018-01-27T11:00:40.124Z,102686.95
2018-01-27T11:03:07.696Z,102688.50
2018-01-27T11:05:35.288Z,102692.48
2018-01-27T11:08:02.843Z,102694.74
2018-01-27T11:10:30.410Z,102694.80
2018-01-27T11:12:58.050Z,102699.02
2018-01-27T11:15:25.635Z,102700.55
2018-01-27T11:17:53.242Z,102701.36
2018-01-27T11:20:20.975Z,102697.55
2018-01-27T11:22:49.425Z,102705.92
2018-01-27T11:25:17.016Z,102708.42
2018-01-27T11:27:44.775Z,102706.59
2018-01-27T11:30:12.642Z,102702.45
2018-01-27T11:32:40.508Z,102692.73
2018-01-27T11:35:08.456Z,102699.78
2018-01-27T11:37:36.830Z,102699.87
2018-01-27T11:40:04.446Z,102704.91
2018-01-27T11:42:32.077Z,102700.02
2018-01-27T11:44:59.651Z,102699.00
2018-01-27T11:47:27.202Z,102696.53
2018-01-27T11:49:54.870Z,102698.63
2018-01-27T11:52:22.442Z,102698.81
2018-01-27T11:54:50.015Z,102699.36
2018-01-27T11:57:17.644Z,102701.37
2018-01-27T11:59:45.198Z,102697.67
2018-01-27T12:02:12.804Z,102688.69
2018-01-27T12:04:40.389Z,102692.59
2018-01-27T12:07:08.009Z,102680.87
2018-01-27T12:09:35.568Z,102678.28
2018-01-27T12:12:03.831Z,102671.23
2018-01-27T12:14:32.041Z,102676.92
2018-01-27T12:17:00.097Z,102669.92
2018-01-27T12:19:27.744Z,102662.03
2018-01-27T12:21:55.346Z,102662.69
2018-01-27T12:24:23.288Z,102662.47
2018-01-27T12:26:51.153Z,102664.37
2018-01-27T12:29:18.768Z,102662.38
2018-01-27T12:31:46.339Z,102664.17
2018-01-27T12:34:13.997Z,102660.81
2018-01-27T12:36:41.577Z,102656.06
2018-01-27T12:39:09.153Z,102652.11
2018-01-27T12:41:36.813Z,102654.08
2018-01-27T12:44:04.391Z,102649.95
2018-01-27T12:46:32.243Z,102641.98
2018-01-27T12:48:59.825Z,102634.48
2018-01-27T12:51:27.423Z,102634.66
2018-01-27T12:53:55.004Z,102637.80
2018-01-27T12:56:22.617Z,102632.42
2018-01-27T12:58:50.235Z,102629.16
2018-01-27T13:01:17.827Z,102629.17
2018-01-27T13:03:45.409Z,102619.05
2018-01-27T13:06:13.013Z,102616.84
2018-01-27T13:08:40.584Z,102603.90
2018-01-27T13:11:08.195Z,102598.89
2018-01-27T13:13:35.785Z,102601.11
2018-01-27T13:16:03.511Z,102600.20
2018-01-27T13:18:31.110Z,102603.83
2018-01-27T13:20:58.782Z,102618.89
2018-01-27T13:23:26.372Z,102621.94
2018-01-27T13:25:53.969Z,102613.65
2018-01-27T13:28:21.547Z,102619.52
2018-01-27T13:30:49.143Z,102632.27
2018-01-27T13:33:16.776Z,102632.69
2018-01-27T13:35:44.346Z,102632.02
2018-01-27T13:38:12.012Z,102635.19
2018-01-27T13:40:39.642Z,102629.27
2018-01-27T13:43:07.213Z,102623.45
2018-01-27T13:45:34.768Z,102626.77
2018-01-27T13:48:02.412Z,102630.45
2018-01-27T13:50:30.014Z,102622.30
2018-01-27T13:52:57.587Z,102630.69
2018-01-27T13:55:26.145Z,102630.20
2018-01-27T13:57:53.716Z,102633.30
2018-01-27T14:00:21.312Z,102624.48
2018-01-27T14:02:48.885Z,102626.83
2018-01-27T14:05:16.469Z,102629.07
2018-01-27T14:07:44.035Z,102624.97
2018-01-27T14:10:11.688Z,102627.52
2018-01-27T14:12:39.276Z,102631.45
2018-01-27T14:15:06.902Z,102629.86
2018-01-27T14:17:34.496Z,102639.49
2018-01-27T14:20:02.317Z,102642.25
2018-01-27T14:22:29.881Z,102640.60
2018-01-27T14:24:57.527Z,102639.33
2018-01-27T14:27:25.631Z,102628.00
2018-01-27T14:29:53.295Z,102617.63
2018-01-27T14:32:20.925Z,102622.69
2018-01-27T14:34:48.628Z,102625.55
2018-01-27T14:37:16.237Z,102629.38
2018-01-27T14:39:43.867Z,102637.23
2018-01-27T14:42:11.485Z,102644.79
2018-01-27T14:44:39.716Z,102644.83
2018-01-27T14:47:08.225Z,102641.08
2018-01-27T14:49:42.344Z,102641.55
2018-01-27T14:52:11.621Z,102636.98
2018-01-27T14:54:39.191Z,102642.30
2018-01-27T14:57:06.791Z,102636.57
2018-01-27T14:59:34.395Z,102644.14
2018-01-27T15:02:01.958Z,102647.87
2018-01-27T15:04:29.895Z,102653.53
2018-01-27T15:06:57.852Z,102659.84
2018-01-27T15:09:25.523Z,102650.11
2018-01-27T15:11:53.189Z,102651.23
2018-01-27T15:14:20.865Z,102649.58
2018-01-27T15:16:48.675Z,102648.87
2018-01-27T15:19:16.239Z,102647.95
2018-01-27T15:21:43.831Z,102645.55
2018-01-27T15:24:11.431Z,102641.69
2018-01-27T15:26:39.010Z,102635.72
2018-01-27T15:29:06.627Z,102635.91
2018-01-27T15:31:34.174Z,102630.59
2018-01-27T15:34:02.044Z,102625.67
2018-01-27T15:36:29.912Z,102629.89
2018-01-27T15:38:57.455Z,102634.20
2018-01-27T15:41:25.195Z,102626.12
2018-01-27T15:43:53.096Z,102635.36
2018-01-27T15:46:20.662Z,102638.49
2018-01-27T15:48:48.525Z,102634.92
2018-01-27T15:51:16.150Z,102637.23
2018-01-27T15:53:43.779Z,102636.80
2018-01-27T15:56:11.425Z,102638.97
2018-01-27T15:58:39.058Z,102641.45
2018-01-27T16:01:06.697Z,102647.05
2018-01-27T16:03:34.297Z,102642.11
2018-01-27T16:06:01.904Z,102641.33
2018-01-27T16:08:30.459Z,102641.73
2018-01-27T16:10:58.121Z,102637.83
2018-01-27T16:13:25.855Z,102637.44
2018-01-27T16:15:53.413Z,102645.10
2018-01-27T16:18:21.035Z,102638.61
2018-01-27T16:20:48.681Z,102635.48
2018-01-27T16:23:16.232Z,102627.28
2018-01-27T16:25:43.811Z,102631.08
2018-01-27T16:28:11.424Z,102625.29
2018-01-27T16:30:38.984Z,102626.84
2018-01-27T16:33:06.638Z,102629.11
2018-01-27T16:35:34.193Z,102622.69
2018-01-27T16:38:01.800Z,102623.48
2018-01-27T16:40:29.415Z,102615.88
2018-01-27T16:42:57.038Z,102620.67
2018-01-27T16:45:24.609Z,102630.27
2018-01-27T16:47:52.376Z,102629.00
2018-01-27T16:50:19.979Z,102636.74
2018-01-27T16:52:47.576Z,102636.08
2018-01-27T16:55:15.452Z,102629.61
2018-01-27T16:57:43.074Z,102629.47
2018-01-27T17:00:10.631Z,102624.15
2018-01-27T17:02:38.205Z,102620.05
2018-01-27T17:05:06.193Z,102620.37
2018-01-27T17:07:33.798Z,102623.99
2018-01-27T17:10:01.716Z,102632.11
2018-01-27T17:12:29.582Z,102628.72
2018-01-27T17:14:57.464Z,102623.13
2018-01-27T17:17:25.078Z,102619.59
2018-01-27T17:19:52.768Z,102616.83
2018-01-27T17:22:20.650Z,102607.25
2018-01-27T17:24:48.230Z,102608.89
2018-01-27T17:27:16.905Z,102599.60
2018-01-27T17:29:45.300Z,102595.56
2018-01-27T17:32:12.904Z,102578.84
2018-01-27T17:34:40.507Z,102572.05
2018-01-27T17:37:08.078Z,102576.81
2018-01-27T17:39:35.643Z,102574.98
2018-01-27T17:42:03.248Z,102564.53
2018-01-27T17:44:30.815Z,102559.98
2018-01-27T17:46:58.372Z,102570.45
2018-01-27T17:49:25.989Z,102562.11
2018-01-27T17:51:53.534Z,102566.46
2018-01-27T17:54:21.097Z,102560.44
2018-01-27T17:56:48.771Z,102556.98
2018-01-27T17:59:16.621Z,102568.27
2018-01-27T18:01:44.195Z,102557.36
2018-01-27T18:04:12.146Z,102555.02
2018-01-27T18:06:39.781Z,102555.55
2018-01-27T18:09:07.670Z,102559.23
2018-01-27T18:11:35.273Z,102561.97
2018-01-27T18:14:03.246Z,102557.25
2018-01-27T18:16:30.823Z,102550.82
2018-01-27T18:18:58.502Z,102556.39
2018-01-27T18:21:26.132Z,102559.30
2018-01-27T18:23:53.706Z,102554.57
2018-01-27T18:26:21.299Z,102547.95
2018-01-27T18:28:48.913Z,102553.80
2018-01-27T18:31:16.504Z,102533.34
2018-01-27T18:33:44.422Z,102528.68
2018-01-27T18:36:12.383Z,102530.23
2018-01-27T18:38:39.953Z,102523.43
2018-01-27T18:41:07.672Z,102528.45
2018-01-27T18:43:35.241Z,102520.89
2018-01-27T18:46:02.797Z,102514.58
2018-01-27T18:48:30.408Z,102504.91
2018-01-27T18:50:57.964Z,102510.95
2018-01-27T18:53:25.583Z,102509.16
2018-01-27T18:55:53.180Z,102504.58
2018-01-27T18:58:20.754Z,102498.11
2018-01-27T19:00:48.354Z,102495.93
2018-01-27T19:03:15.942Z,102489.16
2018-01-27T19:05:43.509Z,102491.59
2018-01-27T19:08:11.141Z,102491.86
2018-01-27T19:10:38.754Z,102491.81
2018-01-27T19:13:06.339Z,102493.54
2018-01-27T19:15:33.933Z,102487.89
2018-01-27T19:18:01.621Z,102485.06
2018-01-27T19:20:29.202Z,102483.55
2018-01-27T19:22:56.777Z,102482.62
2018-01-27T19:25:24.863Z,102464.93
2018-01-27T19:27:52.506Z,102458.33
2018-01-27T19:30:20.134Z,102454.48
2018-01-27T19:32:47.722Z,102462.03
2018-01-27T19:35:15.311Z,102469.79
2018-01-27T19:37:42.907Z,102470.30
2018-01-27T19:40:10.506Z,102460.56
2018-01-27T19:42:38.098Z,102455.77
2018-01-27T19:45:05.709Z,102449.39
2018-01-27T19:47:33.338Z,102448.73
2018-01-27T19:50:00.897Z,102446.58
2018-01-27T19:52:28.522Z,102452.86
2018-01-27T19:54:56.208Z,102451.80
2018-01-27T19:57:23.821Z,102449.56
2018-01-27T19:59:51.486Z,102429.84
2018-01-27T20:02:19.115Z,102417.64
2018-01-27T20:04:46.712Z,102419.49
2018-01-27T20:07:14.301Z,102426.06
2018-01-27T20:09:46.902Z,102424.53
2018-01-27T20:12:15.862Z,102407.68
2018-01-27T20:14:43.744Z,102398.20
2018-01-27T20:17:11.805Z,102393.59
2018-01-27T20:19:39.435Z,102387.05
2018-01-27T20:22:07.019Z,102378.70
2018-01-27T20:24:34.670Z,102382.23
2018-01-27T20:27:02.548Z,102385.36
2018-01-27T20:29:30.176Z,102385.77
2018-01-27T20:31:57.791Z,102395.09
2018-01-27T20:34:25.358Z,102403.78
2018-01-27T20:36:52.932Z,102424.91
2018-01-27T20:39:20.561Z,102423.69
2018-01-27T20:41:48.135Z,102412.30
2018-01-27T20:44:15.756Z,102390.61
2018-01-27T20:46:43.362Z,102390.69
2018-01-27T20:49:10.985Z,102391.79
2018-01-27T20:51:38.576Z,102384.63
2018-01-27T20:54:06.555Z,102367.03
2018-01-27T20:56:34.410Z,102352.33
2018-01-27T20:59:02.154Z,102334.05
2018-01-27T21:01:29.768Z,102331.02
2018-01-27T21:03:57.383Z,102321.42
2018-01-27T21:06:24.933Z,102323.03
2018-01-27T21:08:52.594Z,102329.61
2018-01-27T21:11:20.169Z,102333.01
2018-01-27T21:13:47.767Z,102335.06
2018-01-27T21:16:15.435Z,102322.91
2018-01-27T21:18:43.266Z,102332.52
2018-01-27T21:21:10.849Z,102336.84
2018-01-27T21:23:38.480Z,102333.67
2018-01-27T21:26:06.096Z,102326.53
2018-01-27T21:28:33.661Z,102324.81
2018-01-27T21:31:01.243Z,102319.35
2018-01-27T21:33:29.156Z,102314.59
2018-01-27T21:35:56.722Z,102282.19
2018-01-27T21:38:24.344Z,102289.30
2018-01-27T21:40:51.916Z,102296.32
2018-01-27T21:43:19.538Z,102301.71
2018-01-27T21:45:47.222Z,102302.83
2018-01-27T21:48:15.122Z,102302.94
2018-01-27T21:50:42.693Z,102302.56
2018-01-27T21:53:10.301Z,102295.73
2018-01-27T21:55:38.210Z,102288.20
2018-01-27T21:58:05.786Z,102267.30
2018-01-27T22:00:33.397Z,102259.30
2018-01-27T22:03:01.305Z,102259.95
2018-01-27T22:05:28.852Z,102249.00
2018-01-27T22:07:56.453Z,102247.81
2018-01-27T22:10:24.004Z,102239.95
2018-01-27T22:12:52.354Z,102239.76
2018-01-27T22:15:19.978Z,102219.56
2018-01-27T22:17:47.560Z,102207.83
2018-01-27T22:20:15.262Z,102198.88
2018-01-27T22:22:42.866Z,102198.19
2018-01-27T22:25:10.473Z,102204.52
2018-01-27T22:27:38.047Z,102203.14
2018-01-27T22:30:05.901Z,102198.33
2018-01-27T22:32:33.774Z,102194.33
2018-01-27T22:35:01.366Z,102180.75
2018-01-27T22:37:29.066Z,102176.30
2018-01-27T22:39:56.984Z,102171.74
2018-01-27T22:42:24.954Z,102163.92
2018-01-27T22:44:52.816Z,102160.36
2018-01-27T22:47:20.772Z,102153.61
2018-01-27T22:49:48.314Z,102157.82
2018-01-27T22:52:15.894Z,102160.73
2018-01-27T22:54:43.865Z,102152.38
2018-01-27T22:57:11.947Z,102138.71
2018-01-27T22:59:39.545Z,102145.03
2018-01-27T23:02:07.378Z,102149.96
2018-01-27T23:04:35.239Z,102139.41
2018-01-27T23:07:02.819Z,102141.38
2018-01-27T23:09:30.439Z,102120.22
2018-01-27T23:11:58.005Z,102112.16
2018-01-27T23:14:25.590Z,102106.76
2018-01-27T23:16:53.156Z,102110.09
2018-01-27T23:19:20.771Z,102104.68
2018-01-27T23:21:48.422Z,102095.94
2018-01-27T23:24:15.988Z,102091.97
2018-01-27T23:26:43.575Z,102089.95
2018-01-27T23:29:11.155Z,102085.30
2018-01-27T23:31:38.725Z,102073.15
2018-01-27T23:34:06.306Z,102059.64
2018-01-27T23:36:33.918Z,102065.14
2018-01-27T23:39:01.542Z,102067.42
2018-01-27T23:41:29.166Z,102071.14
2018-01-27T23:43:56.772Z,102067.23
2018-01-27T23:46:24.696Z,102069.77
2018-01-27T23:48:52.553Z,102050.25
2018-01-27T23:51:20.428Z,102044.67
2018-01-27T23:53:48.040Z,102036.05
2018-01-27T23:56:15.740Z,102043.88
2018-01-27T23:58:43.332Z,102032.06
